Huvudsida
METAR-TAF:

METAR-TAF

Flygplatser :

Foggia, Italien

latitud: 41-32N, longitud: 015-43E, höjd: 57 m

Aktuellt väderrapport

Denna rapport gjordes för 1 timme och 13 minuter sedan, klockan 19:55 UTC
Vind 3 kt från ost/nordost
Temperatur 7°C
Fuktighet 70%
Tryck 1010 hPa
Sikt 10 km eller mer
Inga moln under 1 500 m eller inga cumulonimbus

METAR: LIBA 141955Z 06003KT CAVOK 07/02 Q1010 RMK SKC VIS MIN 9999 WIND THR11 04003KT WIND THR29 /////KT BLU

Tid: 22:08 (21:08 UTC)

Väderprognos

Denna rapport gjordes för 1 timme och 8 minuter sedan, klockan 20:00 UTC
Prognos gäller från 14 kl. 21 UTC till 15 kl. 06 UTC
Vind 3 kt varierande vindriktning
Sikt 10 km eller mer
Inga moln under 1 500 m eller inga cumulonimbus

TAF: LIBA 142000Z 1421/1506 VRB03KT CAVOK

Aktuella väderrapporter och prognoser från 4000 flygplatser (METAR- och TAF-rapporter).

De tillgängliga stationerna syns som gula och röda prickar på kartan.

För musen över prickarna för att se namnen på stationerna.

Klicka sedan för att få väderrapporter och prognoser.

För att ändra kartan: Klicka på de gröna knapparna med ett svart kors på för att zooma in; den gröna knappen med ett streck på för att zooma ut; eller på de gröna pilarna för angränsande kartor.


METAR-TAF: